Time;durP1;ratioP1;P1;durP2;ratioP2;P2;SDS_P1;SDS_P2;PMS_P1;PMS_P2;Temp;Humidity;BMP_temperature;BMP_pressure;BME280_temperature;BME280_humidity;BME280_pressure;Samples;Min_cycle;Max_cycle;Signal;HPM_P1;HPM_P2
2024/01/24 00:01:33;;;;;;;;;;;-0.70;90.10;;;;;;5007154;28;86713;-47
2024/01/24 00:03:59;;;;;;;;;;;-0.60;90.10;;;;;;5009040;28;87486;-47
2024/01/24 00:06:25;;;;;;;;;;;-0.60;90.00;;;;;;5006071;28;86975;-49
2024/01/24 00:08:51;;;;;;;;;;;-0.70;90.20;;;;;;5004274;28;89470;-48
2024/01/24 00:11:17;;;;;;;;;;;-0.70;90.10;;;;;;4998901;28;87066;-48
2024/01/24 00:13:43;;;;;;;;;;;-0.60;90.10;;;;;;5005635;28;87000;-49
2024/01/24 00:16:08;;;;;;;;;;;-0.60;90.10;;;;;;5003089;28;87461;-51
2024/01/24 00:18:34;;;;;;;;;;;-0.70;90.10;;;;;;5006219;28;87211;-48
2024/01/24 00:21:00;;;;;;;;;;;-0.70;90.10;;;;;;5005170;28;89649;-48
2024/01/24 00:23:25;;;;;;;;;;;-0.60;90.10;;;;;;5005315;28;87388;-47
2024/01/24 00:25:51;;;;;;;;;;;-0.60;90.10;;;;;;5008636;28;86167;-48
2024/01/24 00:28:17;;;;;;;;;;;-0.60;90.10;;;;;;5005811;28;86961;-47
2024/01/24 00:30:43;;;;;;;;;;;-0.70;90.20;;;;;;5006046;28;86980;-47
2024/01/24 00:33:10;;;;;;;;;;;-0.70;90.10;;;;;;5005764;28;87962;-49
2024/01/24 00:35:35;;;;;;;;;;;-0.70;90.10;;;;;;5005813;28;87408;-47
2024/01/24 00:38:01;;;;;;;;;;;-0.60;90.10;;;;;;5006262;28;87003;-48
2024/01/24 00:40:26;;;;;;;;;;;-0.70;90.10;;;;;;5002715;28;86917;-51
2024/01/24 00:42:52;;;;;;;;;;;-0.60;90.20;;;;;;5007454;28;87518;-48
2024/01/24 00:45:18;;;;;;;;;;;-0.60;90.00;;;;;;5008795;28;87640;-47
2024/01/24 00:47:43;;;;;;;;;;;-0.60;90.10;;;;;;5011500;28;87124;-48
2024/01/24 00:50:09;;;;;;;;;;;-0.60;90.10;;;;;;5009098;28;86300;-48
2024/01/24 00:52:35;;;;;;;;;;;-0.60;90.20;;;;;;5008577;28;87061;-47
2024/01/24 00:55:00;;;;;;;;;;;-0.60;90.10;;;;;;5008441;28;88581;-49
2024/01/24 00:57:26;;;;;;;;;;;-0.60;90.10;;;;;;5007515;28;87888;-47
2024/01/24 00:59:51;;;;;;;;;;;-0.60;90.20;;;;;;5009172;28;88983;-47
2024/01/24 01:02:17;;;;;;;;;;;-0.60;90.00;;;;;;5008930;28;87391;-50
2024/01/24 01:04:46;;;;;;;;;;;-0.70;90.20;;;;;;5008161;28;86974;-47
2024/01/24 01:07:11;;;;;;;;;;;-0.70;90.20;;;;;;5008413;28;86859;-48
2024/01/24 01:09:37;;;;;;;;;;;-0.70;90.30;;;;;;5011318;28;87463;-51
2024/01/24 01:12:03;;;;;;;;;;;-0.60;90.20;;;;;;5008053;28;87073;-46
2024/01/24 01:14:28;;;;;;;;;;;-0.60;90.10;;;;;;5009072;28;88448;-48
2024/01/24 01:16:54;;;;;;;;;;;-0.60;90.10;;;;;;5003165;28;86933;-47
2024/01/24 01:19:19;;;;;;;;;;;-0.60;90.20;;;;;;5009031;28;87017;-47
2024/01/24 01:21:45;;;;;;;;;;;-0.60;90.20;;;;;;5008078;28;87829;-49
2024/01/24 01:24:11;;;;;;;;;;;-0.60;90.20;;;;;;5009047;28;86894;-48
2024/01/24 01:26:36;;;;;;;;;;;-0.60;90.20;;;;;;5007318;28;88047;-47
2024/01/24 01:29:02;;;;;;;;;;;-0.60;90.20;;;;;;5008710;28;87503;-47
2024/01/24 01:31:27;;;;;;;;;;;-0.60;90.20;;;;;;5011569;28;87060;-51
2024/01/24 01:33:53;;;;;;;;;;;-0.60;90.10;;;;;;5008518;28;87389;-49
2024/01/24 01:36:19;;;;;;;;;;;-0.60;90.20;;;;;;5008781;28;86992;-50
2024/01/24 01:38:45;;;;;;;;;;;-0.60;90.10;;;;;;5009201;28;86806;-47
2024/01/24 01:41:10;;;;;;;;;;;-0.60;90.20;;;;;;5007390;28;87400;-47
2024/01/24 01:43:36;;;;;;;;;;;-0.60;90.20;;;;;;5007481;28;87857;-48
2024/01/24 01:46:10;;;;;;;;;;;-0.60;90.20;;;;;;5003995;28;88163;-47
2024/01/24 01:48:36;;;;;;;;;;;-0.60;90.10;;;;;;5004264;28;87572;-48
2024/01/24 01:51:02;;;;;;;;;;;-0.60;90.10;;;;;;5008863;28;87021;-49
2024/01/24 01:53:27;;;;;;;;;;;-0.60;90.10;;;;;;5009872;28;86891;-48
2024/01/24 01:55:53;;;;;;;;;;;-0.60;90.20;;;;;;5003279;28;86987;-48
2024/01/24 01:58:19;;;;;;;;;;;-0.60;90.10;;;;;;5005944;28;86968;-47
2024/01/24 02:00:46;;;;;;;;;;;-0.60;90.10;;;;;;5008136;28;86607;-48
2024/01/24 02:03:12;;;;;;;;;;;-0.60;90.00;;;;;;5006811;28;86365;-47
2024/01/24 02:05:38;;;;;;;;;;;-0.50;90.00;;;;;;5006232;28;87453;-47
2024/01/24 02:08:04;;;;;;;;;;;-0.50;90.00;;;;;;5008062;28;87821;-47
2024/01/24 02:10:29;;;;;;;;;;;-0.50;90.00;;;;;;5007274;28;88027;-48
2024/01/24 02:12:55;;;;;;;;;;;-0.60;90.00;;;;;;5009899;28;87535;-47
2024/01/24 02:15:21;;;;;;;;;;;-0.60;90.00;;;;;;5008026;28;87051;-48
2024/01/24 02:17:47;;;;;;;;;;;-0.60;90.10;;;;;;5007870;28;87966;-48
2024/01/24 02:20:13;;;;;;;;;;;-0.60;90.30;;;;;;5007630;28;88537;-48
2024/01/24 02:22:38;;;;;;;;;;;-0.50;90.00;;;;;;5008288;28;86991;-47
2024/01/24 02:25:04;;;;;;;;;;;-0.50;90.00;;;;;;5007938;28;87642;-48
2024/01/24 02:27:30;;;;;;;;;;;-0.60;90.00;;;;;;5007021;28;88022;-49
2024/01/24 02:29:57;;;;;;;;;;;-0.50;90.00;;;;;;5007995;28;87067;-48
2024/01/24 02:32:22;;;;;;;;;;;-0.50;90.00;;;;;;5003964;28;87801;-49
2024/01/24 02:34:48;;;;;;;;;;;-0.60;90.00;;;;;;5009727;28;88463;-49
2024/01/24 02:37:14;;;;;;;;;;;-0.60;90.00;;;;;;5007722;28;87491;-50
2024/01/24 02:39:40;;;;;;;;;;;-0.50;89.90;;;;;;5007150;28;88433;-48
2024/01/24 02:42:06;;;;;;;;;;;-0.50;89.80;;;;;;5006720;28;86954;-49
2024/01/24 02:44:32;;;;;;;;;;;-0.50;89.90;;;;;;5007334;28;87052;-48
2024/01/24 02:46:58;;;;;;;;;;;-0.50;90.00;;;;;;5007189;28;86932;-47
2024/01/24 02:49:23;;;;;;;;;;;-0.50;89.80;;;;;;5007676;28;87033;-48
2024/01/24 02:51:49;;;;;;;;;;;-0.50;89.80;;;;;;5008009;28;86820;-47
2024/01/24 02:54:14;;;;;;;;;;;-0.50;89.80;;;;;;5007223;28;87290;-48
2024/01/24 02:56:40;;;;;;;;;;;-0.50;89.70;;;;;;5009699;28;88657;-49
2024/01/24 02:59:05;;;;;;;;;;;-0.50;89.60;;;;;;5006222;28;89408;-48
2024/01/24 03:01:31;;;;;;;;;;;-0.50;89.50;;;;;;5007828;28;87954;-47
2024/01/24 03:03:56;;;;;;;;;;;-0.50;89.60;;;;;;5007015;28;86872;-49
2024/01/24 03:06:22;;;;;;;;;;;-0.50;89.80;;;;;;5006999;28;87559;-47
2024/01/24 03:08:51;;;;;;;;;;;-0.50;89.60;;;;;;5006998;28;87093;-48
2024/01/24 03:11:17;;;;;;;;;;;-0.50;89.50;;;;;;5007271;28;87009;-48
2024/01/24 03:13:43;;;;;;;;;;;-0.50;89.40;;;;;;5006190;28;88762;-49
2024/01/24 03:16:09;;;;;;;;;;;-0.50;89.50;;;;;;5007610;28;86300;-48
2024/01/24 03:18:38;;;;;;;;;;;-0.50;89.50;;;;;;5009940;28;86919;-47
2024/01/24 03:21:09;;;;;;;;;;;-0.50;89.70;;;;;;5007105;28;87004;-48
2024/01/24 03:23:37;;;;;;;;;;;-0.50;89.50;;;;;;5003036;28;87851;-49
2024/01/24 03:26:03;;;;;;;;;;;-0.50;89.30;;;;;;5006637;28;87300;-48
2024/01/24 03:28:28;;;;;;;;;;;-0.50;89.30;;;;;;5003124;28;87117;-48
2024/01/24 03:30:54;;;;;;;;;;;-0.50;89.40;;;;;;5006681;28;87864;-49
2024/01/24 03:33:21;;;;;;;;;;;-0.50;89.40;;;;;;5006426;28;88357;-50
2024/01/24 03:35:47;;;;;;;;;;;-0.50;89.40;;;;;;5006897;28;86984;-49
2024/01/24 03:38:12;;;;;;;;;;;-0.50;89.40;;;;;;5006987;28;86931;-47
2024/01/24 03:40:38;;;;;;;;;;;-0.50;89.40;;;;;;5009920;28;86795;-49
2024/01/24 03:43:03;;;;;;;;;;;-0.50;89.20;;;;;;5002799;28;87005;-48
2024/01/24 03:45:29;;;;;;;;;;;-0.50;89.20;;;;;;5005442;28;88545;-47
2024/01/24 03:47:54;;;;;;;;;;;-0.50;89.10;;;;;;5005878;28;87997;-48
2024/01/24 03:50:20;;;;;;;;;;;-0.50;89.10;;;;;;5006792;28;87652;-49
2024/01/24 03:52:45;;;;;;;;;;;-0.50;89.10;;;;;;5006293;28;87377;-48
2024/01/24 03:55:11;;;;;;;;;;;-0.50;89.20;;;;;;5006057;28;86956;-49
2024/01/24 03:57:36;;;;;;;;;;;-0.50;89.30;;;;;;5003318;28;87144;-49
2024/01/24 04:00:05;;;;;;;;;;;-0.50;89.20;;;;;;5006285;28;87433;-50
2024/01/24 04:02:31;;;;;;;;;;;-0.50;89.30;;;;;;5009124;28;86934;-48
2024/01/24 04:04:56;;;;;;;;;;;-0.50;89.20;;;;;;5004217;28;86719;-48
2024/01/24 04:07:22;;;;;;;;;;;-0.50;89.30;;;;;;5005416;28;87034;-49
2024/01/24 04:09:47;;;;;;;;;;;-0.50;89.20;;;;;;5004885;28;87662;-48
2024/01/24 04:12:13;;;;;;;;;;;-0.50;89.20;;;;;;5005271;28;88343;-51
2024/01/24 04:14:39;;;;;;;;;;;-0.50;89.10;;;;;;5004682;28;86991;-48
2024/01/24 04:17:04;;;;;;;;;;;-0.50;89.10;;;;;;5008035;28;86934;-49
2024/01/24 04:19:30;;;;;;;;;;;-0.50;89.20;;;;;;5008636;28;88480;-48
2024/01/24 04:21:56;;;;;;;;;;;-0.50;89.30;;;;;;5012841;28;87046;-49
2024/01/24 04:24:21;;;;;;;;;;;-0.50;89.30;;;;;;5009065;28;88464;-47
2024/01/24 04:26:47;;;;;;;;;;;-0.50;89.20;;;;;;5009668;28;86959;-47
2024/01/24 04:29:12;;;;;;;;;;;-0.50;89.20;;;;;;5009516;28;86880;-50
2024/01/24 04:31:38;;;;;;;;;;;-0.50;89.20;;;;;;5007159;28;87345;-46
2024/01/24 04:34:04;;;;;;;;;;;-0.60;89.20;;;;;;5009549;28;86991;-48
2024/01/24 04:36:30;;;;;;;;;;;-0.60;89.40;;;;;;5007803;28;88496;-50
2024/01/24 04:38:55;;;;;;;;;;;-0.50;89.30;;;;;;5001630;28;88676;-47
2024/01/24 04:41:21;;;;;;;;;;;-0.50;89.20;;;;;;5006295;28;87088;-47
2024/01/24 04:43:47;;;;;;;;;;;-0.50;89.10;;;;;;5010479;28;88125;-48
2024/01/24 04:46:13;;;;;;;;;;;-0.50;89.10;;;;;;5009029;28;86962;-48
2024/01/24 04:48:40;;;;;;;;;;;-0.50;89.10;;;;;;5008752;28;87039;-48
2024/01/24 04:51:05;;;;;;;;;;;-0.60;89.10;;;;;;5009200;28;87510;-49
2024/01/24 04:53:31;;;;;;;;;;;-0.60;89.20;;;;;;5009655;28;86373;-49
2024/01/24 04:55:56;;;;;;;;;;;-0.50;89.20;;;;;;5009425;28;86969;-47
2024/01/24 04:58:22;;;;;;;;;;;-0.50;89.20;;;;;;5007903;28;87704;-50
2024/01/24 05:00:47;;;;;;;;;;;-0.50;89.00;;;;;;5007859;28;88025;-48
2024/01/24 05:03:14;;;;;;;;;;;-0.50;89.10;;;;;;5008525;28;88720;-47
2024/01/24 05:05:40;;;;;;;;;;;-0.50;89.10;;;;;;5011037;28;88482;-48
2024/01/24 05:08:06;;;;;;;;;;;-0.50;89.10;;;;;;5008494;28;87933;-47
2024/01/24 05:10:32;;;;;;;;;;;-0.50;89.00;;;;;;5007002;28;87472;-47
2024/01/24 05:12:57;;;;;;;;;;;-0.60;88.90;;;;;;5007542;28;87079;-47
2024/01/24 05:15:23;;;;;;;;;;;-0.50;89.00;;;;;;5007305;28;87056;-49
2024/01/24 05:17:48;;;;;;;;;;;-0.60;88.90;;;;;;5008277;28;86740;-51
2024/01/24 05:20:14;;;;;;;;;;;-0.60;89.00;;;;;;5008156;28;86996;-49
2024/01/24 05:22:39;;;;;;;;;;;-0.60;89.00;;;;;;5008066;28;87044;-47
2024/01/24 05:25:05;;;;;;;;;;;-0.60;88.90;;;;;;5006825;28;88716;-48
2024/01/24 05:27:31;;;;;;;;;;;-0.50;88.90;;;;;;5010557;28;87026;-47
2024/01/24 05:29:56;;;;;;;;;;;-0.60;88.80;;;;;;5006499;28;88463;-47
2024/01/24 05:32:22;;;;;;;;;;;-0.60;88.70;;;;;;5007757;28;86994;-49
2024/01/24 05:34:49;;;;;;;;;;;-0.60;89.00;;;;;;5007854;28;86891;-48
2024/01/24 05:37:14;;;;;;;;;;;-0.50;88.90;;;;;;5007293;28;87446;-51
2024/01/24 05:39:41;;;;;;;;;;;-0.60;88.80;;;;;;5006448;28;87119;-47
2024/01/24 05:42:07;;;;;;;;;;;-0.60;88.80;;;;;;5007509;28;86757;-49
2024/01/24 05:44:34;;;;;;;;;;;-0.60;88.80;;;;;;5005564;28;88410;-47
2024/01/24 05:46:59;;;;;;;;;;;-0.50;88.90;;;;;;5006293;28;87060;-47
2024/01/24 05:49:25;;;;;;;;;;;-0.60;88.90;;;;;;5009003;28;87868;-48
2024/01/24 05:51:51;;;;;;;;;;;-0.60;88.80;;;;;;5007573;28;87070;-48
2024/01/24 05:54:16;;;;;;;;;;;-0.60;88.80;;;;;;5004576;28;87965;-50
2024/01/24 05:56:42;;;;;;;;;;;-0.60;88.90;;;;;;5003696;28;87353;-47
2024/01/24 05:59:08;;;;;;;;;;;-0.60;88.80;;;;;;5006790;28;87009;-47
2024/01/24 06:01:33;;;;;;;;;;;-0.60;88.70;;;;;;5002084;28;89627;-48
2024/01/24 06:03:59;;;;;;;;;;;-0.60;88.70;;;;;;5007036;28;87447;-48
2024/01/24 06:06:24;;;;;;;;;;;-0.60;88.80;;;;;;5006145;28;86303;-48
2024/01/24 06:08:50;;;;;;;;;;;-0.60;88.70;;;;;;4948996;28;1743170;-47
2024/01/24 06:11:16;;;;;;;;;;;-0.60;88.80;;;;;;5007212;28;87068;-52
2024/01/24 06:13:41;;;;;;;;;;;-0.60;88.80;;;;;;5007671;28;87862;-47
2024/01/24 06:16:07;;;;;;;;;;;-0.60;88.60;;;;;;5007578;28;87514;-49
2024/01/24 06:18:32;;;;;;;;;;;-0.60;88.60;;;;;;5008287;28;87044;-48
2024/01/24 06:20:58;;;;;;;;;;;-0.60;88.70;;;;;;5007200;28;86876;-48
2024/01/24 06:23:23;;;;;;;;;;;-0.60;88.70;;;;;;5006407;28;87568;-47
2024/01/24 06:25:49;;;;;;;;;;;-0.60;88.60;;;;;;5007019;28;87011;-46
2024/01/24 06:28:15;;;;;;;;;;;-0.60;88.50;;;;;;5007376;28;87044;-49
2024/01/24 06:30:41;;;;;;;;;;;-0.60;88.60;;;;;;5008670;28;86889;-47
2024/01/24 06:33:07;;;;;;;;;;;-0.60;88.50;;;;;;5007629;28;86921;-46
2024/01/24 06:35:32;;;;;;;;;;;-0.60;88.60;;;;;;5003103;28;86848;-48
2024/01/24 06:37:58;;;;;;;;;;;-0.60;88.60;;;;;;5005004;28;87922;-47
2024/01/24 06:40:24;;;;;;;;;;;-0.60;88.60;;;;;;5006761;28;86833;-47
2024/01/24 06:42:50;;;;;;;;;;;-0.60;88.40;;;;;;5007177;28;88530;-49
2024/01/24 06:45:16;;;;;;;;;;;-0.60;88.60;;;;;;5006244;28;86829;-47
2024/01/24 06:47:43;;;;;;;;;;;-0.60;88.60;;;;;;5007283;28;86924;-47
2024/01/24 06:50:09;;;;;;;;;;;-0.60;88.40;;;;;;5007202;28;88411;-47
2024/01/24 06:52:35;;;;;;;;;;;-0.60;88.50;;;;;;5010384;28;87168;-49
2024/01/24 06:55:01;;;;;;;;;;;-0.70;88.50;;;;;;5007343;28;87584;-47
2024/01/24 06:57:27;;;;;;;;;;;-0.70;88.50;;;;;;5006564;28;86923;-46
2024/01/24 06:59:53;;;;;;;;;;;-0.60;88.50;;;;;;5006862;28;87003;-48
2024/01/24 07:02:18;;;;;;;;;;;-0.60;88.60;;;;;;5006498;28;88390;-47
2024/01/24 07:04:44;;;;;;;;;;;-0.60;88.50;;;;;;5002890;28;86987;-48
2024/01/24 07:07:09;;;;;;;;;;;-0.70;88.40;;;;;;5004238;28;86881;-50
2024/01/24 07:09:36;;;;;;;;;;;-0.70;88.60;;;;;;5004202;28;87459;-48
2024/01/24 07:12:03;;;;;;;;;;;-0.60;88.50;;;;;;5006757;28;87252;-48
2024/01/24 07:14:28;;;;;;;;;;;-0.70;88.50;;;;;;5007792;28;88789;-48
2024/01/24 07:16:54;;;;;;;;;;;-0.60;88.40;;;;;;5001190;28;87053;-51
2024/01/24 07:19:19;;;;;;;;;;;-0.60;88.30;;;;;;5007405;28;87046;-47
2024/01/24 07:21:45;;;;;;;;;;;-0.70;88.40;;;;;;5005933;28;87572;-47
2024/01/24 07:24:11;;;;;;;;;;;-0.60;88.50;;;;;;5006683;28;86933;-48
2024/01/24 07:26:37;;;;;;;;;;;-0.60;88.50;;;;;;5002811;28;87868;-48
2024/01/24 07:29:02;;;;;;;;;;;-0.60;88.40;;;;;;5006371;28;88584;-48
2024/01/24 07:31:28;;;;;;;;;;;-0.60;88.40;;;;;;5006642;28;87054;-47
2024/01/24 07:33:54;;;;;;;;;;;-0.60;88.40;;;;;;5007159;28;86854;-47
2024/01/24 07:36:21;;;;;;;;;;;-0.60;88.90;;;;;;5009481;28;87488;-49
2024/01/24 07:38:47;;;;;;;;;;;-0.60;88.40;;;;;;5006813;28;87748;-47
2024/01/24 07:41:13;;;;;;;;;;;-0.60;88.30;;;;;;5006265;28;88572;-48
2024/01/24 07:43:39;;;;;;;;;;;-0.60;88.20;;;;;;5007214;28;86259;-48
2024/01/24 07:46:04;;;;;;;;;;;-0.60;88.20;;;;;;5006375;28;87572;-46
2024/01/24 07:48:31;;;;;;;;;;;-0.60;88.20;;;;;;5005405;28;87391;-46
2024/01/24 07:50:57;;;;;;;;;;;-0.60;88.30;;;;;;5005353;28;87947;-48
2024/01/24 07:53:23;;;;;;;;;;;-0.60;88.20;;;;;;5006859;28;87840;-46
2024/01/24 07:55:49;;;;;;;;;;;-0.60;88.30;;;;;;5005269;28;88651;-47
2024/01/24 07:58:14;;;;;;;;;;;-0.60;88.40;;;;;;5008844;28;87804;-47
2024/01/24 08:00:40;;;;;;;;;;;-0.70;88.30;;;;;;5003169;28;87326;-48
2024/01/24 08:03:07;;;;;;;;;;;-0.70;88.40;;;;;;5006084;28;87052;-50
2024/01/24 08:05:33;;;;;;;;;;;-0.60;88.30;;;;;;5006582;28;87099;-47
2024/01/24 08:07:59;;;;;;;;;;;-0.60;88.30;;;;;;5006776;28;86503;-47
2024/01/24 08:10:25;;;;;;;;;;;-0.60;88.90;;;;;;5005951;28;87009;-47
2024/01/24 08:12:50;;;;;;;;;;;-0.60;88.40;;;;;;5004288;28;87081;-47
2024/01/24 08:15:16;;;;;;;;;;;-0.60;88.50;;;;;;5003612;28;89356;-47
2024/01/24 08:17:42;;;;;;;;;;;-0.70;88.40;;;;;;5008326;28;87059;-47
2024/01/24 08:20:08;;;;;;;;;;;-0.60;88.40;;;;;;5005620;28;87707;-48
2024/01/24 08:22:34;;;;;;;;;;;-0.60;88.40;;;;;;5006085;28;87016;-47
2024/01/24 08:25:00;;;;;;;;;;;-0.60;88.40;;;;;;5005832;28;87950;-47
2024/01/24 08:27:26;;;;;;;;;;;-0.60;88.30;;;;;;5005831;28;87265;-47
2024/01/24 08:29:52;;;;;;;;;;;-0.60;88.40;;;;;;5006006;28;87104;-47
2024/01/24 08:32:18;;;;;;;;;;;-0.60;88.30;;;;;;5005979;28;87047;-48
2024/01/24 08:34:43;;;;;;;;;;;-0.60;88.30;;;;;;5006018;28;87520;-46
2024/01/24 08:37:09;;;;;;;;;;;-0.60;88.30;;;;;;5006269;28;87060;-48
2024/01/24 08:39:35;;;;;;;;;;;-0.60;88.30;;;;;;5007613;28;88004;-47
2024/01/24 08:42:01;;;;;;;;;;;-0.60;88.40;;;;;;5006206;28;87044;-48
2024/01/24 08:44:27;;;;;;;;;;;-0.60;88.30;;;;;;5005204;28;87940;-47
2024/01/24 08:46:52;;;;;;;;;;;-0.50;88.30;;;;;;5005081;28;88508;-47
2024/01/24 08:49:18;;;;;;;;;;;-0.50;88.40;;;;;;5005863;28;87009;-47
2024/01/24 08:51:44;;;;;;;;;;;-0.50;88.50;;;;;;5005734;28;87048;-49
2024/01/24 08:54:12;;;;;;;;;;;-0.60;88.60;;;;;;5005632;28;87433;-47
2024/01/24 08:56:39;;;;;;;;;;;-0.50;88.60;;;;;;5002940;28;86306;-48
2024/01/24 08:59:04;;;;;;;;;;;-0.50;88.70;;;;;;5005524;28;86982;-48
2024/01/24 09:01:30;;;;;;;;;;;-0.50;88.60;;;;;;5007737;28;87487;-49
2024/01/24 09:03:56;;;;;;;;;;;-0.50;88.50;;;;;;5004451;28;87849;-47
2024/01/24 09:06:22;;;;;;;;;;;-0.50;88.40;;;;;;5007879;28;87443;-48
2024/01/24 09:08:52;;;;;;;;;;;-0.50;88.50;;;;;;5008672;28;87016;-47
2024/01/24 09:11:21;;;;;;;;;;;-0.50;88.40;;;;;;5002596;28;88572;-46
2024/01/24 09:13:47;;;;;;;;;;;-0.50;88.40;;;;;;5008304;28;87485;-48
2024/01/24 09:16:13;;;;;;;;;;;-0.50;88.40;;;;;;5008388;28;87137;-47
2024/01/24 09:18:39;;;;;;;;;;;-0.50;88.40;;;;;;5006736;28;87014;-47
2024/01/24 09:21:04;;;;;;;;;;;-0.50;88.60;;;;;;5009410;28;86207;-48
2024/01/24 09:23:30;;;;;;;;;;;-0.50;88.50;;;;;;5011817;28;87062;-48
2024/01/24 09:25:56;;;;;;;;;;;-0.50;88.40;;;;;;5008536;28;87507;-47
2024/01/24 09:28:22;;;;;;;;;;;-0.50;88.50;;;;;;5008280;28;87923;-48
2024/01/24 09:30:47;;;;;;;;;;;-0.50;88.60;;;;;;5008335;28;88918;-48
2024/01/24 09:33:13;;;;;;;;;;;-0.40;88.60;;;;;;5004524;28;87592;-48
2024/01/24 09:35:40;;;;;;;;;;;-0.40;88.60;;;;;;5008726;28;86992;-47
2024/01/24 09:38:06;;;;;;;;;;;-0.50;88.90;;;;;;5008834;28;87728;-47
2024/01/24 09:40:31;;;;;;;;;;;-0.40;88.60;;;;;;5008388;28;87368;-46
2024/01/24 09:43:00;;;;;;;;;;;-0.40;88.70;;;;;;5008444;28;86986;-46
2024/01/24 09:48:11;;;;;;;;;;;-0.40;88.90;;;;;;5004693;28;89239;-48
2024/01/24 09:50:37;;;;;;;;;;;-0.40;89.00;;;;;;5008554;28;88177;-48
2024/01/24 09:53:07;;;;;;;;;;;-0.40;89.00;;;;;;5007661;28;88325;-47
2024/01/24 09:55:33;;;;;;;;;;;-0.40;89.30;;;;;;5004722;28;87078;-49
2024/01/24 09:57:59;;;;;;;;;;;-0.40;89.30;;;;;;5008500;28;87270;-47
2024/01/24 10:00:24;;;;;;;;;;;-0.40;89.30;;;;;;5008002;28;87373;-47
2024/01/24 10:02:50;;;;;;;;;;;-0.40;89.70;;;;;;5006843;28;87643;-48
2024/01/24 10:05:16;;;;;;;;;;;-0.30;89.50;;;;;;5008412;28;86919;-47
2024/01/24 10:07:42;;;;;;;;;;;-0.40;89.70;;;;;;5010857;28;87329;-47
2024/01/24 10:10:12;;;;;;;;;;;-0.40;89.90;;;;;;5005879;28;87873;-47
2024/01/24 10:12:39;;;;;;;;;;;-0.30;89.80;;;;;;5007878;28;88536;-47
2024/01/24 10:15:05;;;;;;;;;;;-0.40;89.90;;;;;;5006561;28;87284;-48
2024/01/24 10:17:30;;;;;;;;;;;-0.30;90.00;;;;;;5005459;28;87966;-47
2024/01/24 10:19:56;;;;;;;;;;;-0.30;90.00;;;;;;5007388;28;87587;-48
2024/01/24 10:22:22;;;;;;;;;;;-0.30;90.00;;;;;;5007510;28;87015;-47
2024/01/24 10:24:48;;;;;;;;;;;-0.30;90.00;;;;;;5003328;28;87966;-49
2024/01/24 10:27:14;;;;;;;;;;;-0.30;89.90;;;;;;5009982;28;87938;-48
2024/01/24 10:29:40;;;;;;;;;;;-0.30;90.20;;;;;;5007436;28;86925;-48
2024/01/24 10:32:11;;;;;;;;;;;-0.30;90.00;;;;;;5007368;28;87640;-47
2024/01/24 10:34:37;;;;;;;;;;;-0.30;90.10;;;;;;5006707;28;86278;-50
2024/01/24 10:37:05;;;;;;;;;;;-0.20;90.00;;;;;;5007904;28;86962;-47
2024/01/24 10:39:33;;;;;;;;;;;-0.30;90.00;;;;;;5007343;28;87466;-47
2024/01/24 10:42:01;;;;;;;;;;;-0.30;90.20;;;;;;5007150;28;87918;-46
2024/01/24 10:44:31;;;;;;;;;;;-0.30;90.20;;;;;;5003984;28;87721;-49
2024/01/24 10:46:57;;;;;;;;;;;-0.20;90.20;;;;;;5007278;28;87439;-47
2024/01/24 10:49:23;;;;;;;;;;;-0.20;90.20;;;;;;5008855;28;88484;-49
2024/01/24 10:51:49;;;;;;;;;;;-0.20;90.20;;;;;;5007137;28;87288;-48
2024/01/24 10:54:18;;;;;;;;;;;-0.20;90.40;;;;;;5007570;28;86932;-47
2024/01/24 10:56:48;;;;;;;;;;;-0.20;90.20;;;;;;5007609;28;86954;-48
2024/01/24 10:59:14;;;;;;;;;;;-0.20;90.20;;;;;;5006372;28;87811;-49
2024/01/24 11:01:40;;;;;;;;;;;-0.20;90.20;;;;;;5006922;28;86965;-47
2024/01/24 11:04:06;;;;;;;;;;;-0.20;90.20;;;;;;5005417;28;86958;-48
2024/01/24 11:06:32;;;;;;;;;;;-0.20;90.20;;;;;;5004054;28;88580;-49
2024/01/24 11:09:27;;;;;;;;;;;-0.20;90.20;;;;;;5006496;28;87054;-49
2024/01/24 11:11:54;;;;;;;;;;;-0.20;90.30;;;;;;4970875;28;87157;-48
2024/01/24 11:14:29;;;;;;;;;;;-0.20;90.30;;;;;;5007381;28;87739;-48
2024/01/24 11:16:55;;;;;;;;;;;-0.20;90.30;;;;;;5004921;28;87833;-48
2024/01/24 11:19:22;;;;;;;;;;;-0.10;90.30;;;;;;4999625;28;87113;-50
2024/01/24 11:21:48;;;;;;;;;;;-0.10;90.10;;;;;;5006144;28;87412;-48
2024/01/24 11:24:33;;;;;;;;;;;-0.10;90.30;;;;;;5007440;28;87872;-48
2024/01/24 11:26:59;;;;;;;;;;;-0.10;90.30;;;;;;5005442;28;87483;-48
2024/01/24 11:29:32;;;;;;;;;;;-0.10;90.40;;;;;;5006798;28;87031;-48
2024/01/24 11:31:58;;;;;;;;;;;-0.10;90.40;;;;;;5002640;28;87963;-48
2024/01/24 11:34:26;;;;;;;;;;;-0.10;90.40;;;;;;5008619;28;87504;-48
2024/01/24 11:36:52;;;;;;;;;;;0.00;90.40;;;;;;5006302;28;87994;-49
2024/01/24 11:39:30;;;;;;;;;;;0.00;90.30;;;;;;5006577;28;87483;-47
2024/01/24 11:42:14;;;;;;;;;;;0.00;90.40;;;;;;5006715;28;87164;-51
2024/01/24 11:44:40;;;;;;;;;;;0.00;90.30;;;;;;5006176;28;87978;-48
2024/01/24 11:47:07;;;;;;;;;;;0.00;90.40;;;;;;5006458;28;87330;-49
2024/01/24 11:49:33;;;;;;;;;;;0.00;90.50;;;;;;5006505;28;86345;-49
2024/01/24 11:52:02;;;;;;;;;;;0.00;90.40;;;;;;5006560;28;87029;-48
2024/01/24 11:54:27;;;;;;;;;;;0.00;90.70;;;;;;5006324;28;88517;-48
2024/01/24 11:56:53;;;;;;;;;;;0.00;90.50;;;;;;5007009;28;87974;-49
2024/01/24 11:59:21;;;;;;;;;;;0.00;90.50;;;;;;5006435;28;87584;-49
2024/01/24 12:01:47;;;;;;;;;;;0.10;90.50;;;;;;5006141;28;86981;-47
2024/01/24 12:04:12;;;;;;;;;;;0.00;90.50;;;;;;5006390;28;86761;-48
2024/01/24 12:06:38;;;;;;;;;;;0.10;90.50;;;;;;5005061;28;87378;-47
2024/01/24 12:09:08;;;;;;;;;;;0.10;90.50;;;;;;5005075;28;86988;-51
2024/01/24 12:11:34;;;;;;;;;;;0.10;90.50;;;;;;5005305;28;86905;-50
2024/01/24 12:14:00;;;;;;;;;;;0.10;90.50;;;;;;5003111;28;86717;-50
2024/01/24 12:16:28;;;;;;;;;;;0.20;90.60;;;;;;5006612;28;87080;-50
2024/01/24 12:18:56;;;;;;;;;;;0.10;90.80;;;;;;5008964;28;86889;-49
2024/01/24 12:21:22;;;;;;;;;;;0.10;90.60;;;;;;5003323;28;88130;-48
2024/01/24 12:23:48;;;;;;;;;;;0.10;90.50;;;;;;5006391;28;87735;-50
2024/01/24 12:26:16;;;;;;;;;;;0.10;90.50;;;;;;5005696;28;87349;-50
2024/01/24 12:28:42;;;;;;;;;;;0.20;90.60;;;;;;5005131;28;87037;-49
2024/01/24 12:31:07;;;;;;;;;;;0.20;90.60;;;;;;5006205;28;87058;-48
2024/01/24 12:33:33;;;;;;;;;;;0.20;90.60;;;;;;5005829;28;87564;-50
2024/01/24 12:36:02;;;;;;;;;;;0.20;90.60;;;;;;5004922;28;87189;-48
2024/01/24 12:38:29;;;;;;;;;;;0.20;90.70;;;;;;5011437;28;86774;-49
2024/01/24 12:40:54;;;;;;;;;;;0.20;90.60;;;;;;5009497;28;86901;-49
2024/01/24 12:43:21;;;;;;;;;;;0.20;90.70;;;;;;5009446;28;86911;-49
2024/01/24 12:45:47;;;;;;;;;;;0.20;90.60;;;;;;5003704;28;88475;-49
2024/01/24 12:48:13;;;;;;;;;;;0.30;90.60;;;;;;5009221;28;87099;-48
2024/01/24 12:50:38;;;;;;;;;;;0.30;90.70;;;;;;5008598;28;87771;-50
2024/01/24 12:53:04;;;;;;;;;;;0.30;90.70;;;;;;5008789;28;87481;-48
2024/01/24 12:55:30;;;;;;;;;;;0.30;90.70;;;;;;5009527;28;87133;-50
2024/01/24 12:57:55;;;;;;;;;;;0.30;90.60;;;;;;5004432;28;86995;-49
2024/01/24 13:00:21;;;;;;;;;;;0.30;90.60;;;;;;5011395;28;88853;-50
2024/01/24 13:02:46;;;;;;;;;;;0.30;90.60;;;;;;5009639;28;86744;-51
2024/01/24 13:05:12;;;;;;;;;;;0.30;90.60;;;;;;5005209;28;87396;-50
2024/01/24 13:07:39;;;;;;;;;;;0.40;90.60;;;;;;5009041;28;87263;-48
2024/01/24 13:10:05;;;;;;;;;;;0.40;90.60;;;;;;5007498;28;87879;-48
2024/01/24 13:12:31;;;;;;;;;;;0.40;90.60;;;;;;5007878;28;88495;-51
2024/01/24 13:14:57;;;;;;;;;;;0.40;90.60;;;;;;5008272;28;87481;-50
2024/01/24 13:17:23;;;;;;;;;;;0.40;90.70;;;;;;5007710;28;86980;-49
2024/01/24 13:19:48;;;;;;;;;;;0.40;90.60;;;;;;5006206;28;88265;-49
2024/01/24 13:22:14;;;;;;;;;;;0.40;90.70;;;;;;5011749;28;87188;-47
2024/01/24 13:24:39;;;;;;;;;;;0.40;90.60;;;;;;5008966;28;87377;-49
2024/01/24 13:27:05;;;;;;;;;;;0.40;90.70;;;;;;5007992;28;86253;-49
2024/01/24 13:29:32;;;;;;;;;;;0.40;90.70;;;;;;5005740;28;86856;-50
2024/01/24 13:31:58;;;;;;;;;;;0.40;90.70;;;;;;5005384;28;88598;-51
2024/01/24 13:34:23;;;;;;;;;;;0.40;90.70;;;;;;5008173;28;88085;-48
2024/01/24 13:36:49;;;;;;;;;;;0.40;90.70;;;;;;5007522;28;87785;-50
2024/01/24 13:39:14;;;;;;;;;;;0.40;90.70;;;;;;5008568;28;87427;-52
2024/01/24 13:41:41;;;;;;;;;;;0.50;90.70;;;;;;5008773;28;87099;-51
2024/01/24 13:44:07;;;;;;;;;;;0.50;90.70;;;;;;5011177;28;87060;-49
2024/01/24 13:46:33;;;;;;;;;;;0.50;90.70;;;;;;5008181;28;87203;-48
2024/01/24 13:48:59;;;;;;;;;;;0.50;90.70;;;;;;5007807;28;87069;-49
2024/01/24 13:51:24;;;;;;;;;;;0.50;90.70;;;;;;5004062;28;87886;-49
2024/01/24 13:53:50;;;;;;;;;;;0.50;90.60;;;;;;5008282;28;87107;-48
2024/01/24 13:56:15;;;;;;;;;;;0.60;90.60;;;;;;5007799;28;87707;-49
2024/01/24 13:58:41;;;;;;;;;;;0.60;90.60;;;;;;5006323;28;89111;-49
2024/01/24 14:01:07;;;;;;;;;;;0.60;90.60;;;;;;5008578;28;86982;-50
2024/01/24 14:03:33;;;;;;;;;;;0.60;90.60;;;;;;5002603;28;87092;-49
2024/01/24 14:05:59;;;;;;;;;;;0.60;90.60;;;;;;5008744;28;88653;-50
2024/01/24 14:08:25;;;;;;;;;;;0.60;90.60;;;;;;5003303;28;87954;-48
2024/01/24 14:10:51;;;;;;;;;;;0.60;90.60;;;;;;5007677;28;87456;-50
2024/01/24 14:13:17;;;;;;;;;;;0.60;90.60;;;;;;5003917;28;87804;-48
2024/01/24 14:15:42;;;;;;;;;;;0.60;90.50;;;;;;5008552;28;87037;-47